Startpagina
METAR-TAF:

METAR-TAF

Vliegvelden :

Havana, Cuba

José Martí International Airport

breedte: 22-59N, lengte: 082-24W, hoogte: 59 m

Actueel weer

Dit bericht is 52 minuten geleden gemaakt, om 23:55 UTC
Wind 11 kt uit het noordoosten
Temperatuur 29°C
Vochtigheid 70%
Druk 1016 hPa
Zicht: 9000 m
Verspreide wolken op 2500 ft

METAR: MUHA 262355Z 05011KT 9000 SCT025 29/23 Q1016

Tijdstip: 20:47 (00:47 UTC)

Verwachting

Dit bericht is 1 uur en het 47 minuten geleden gemaakt, om 23:00 UTC
Verwachting geldig van 27 om 00 UTC tot 27 om 24 UTC
Wind 6 kt uit het oosten
Zicht: 9000 m
Verspreide wolken op 2500 ft
Wijzigt naar
van 27 om 11 UTC tot 27 om 13 UTC
Wind 10 kt uit het oostzuidoosten
Tijdelijke
van 27 om 18 UTC tot 27 om 22 UTC
Wind 10 kt uit variabele richting
Zicht: 5000 m
Weinig wolken op 1800 ft, Cumulonimbus.
Gebroken wolken op 2000 ft
regenbuien

TAF: MUHA 262300Z 2700/2724 09006KT 9000 SCT025 BECMG 2711/2713 12010KT TEMPO 2718/2722 VRB10KT 5000 SHRA FEW018CB BKN020

Waarnemingen en weersverwachtingen van meer dan 4000 vliegvelden (METAR en TAF).

De beschikbare stations zijn de gele en rode punten op de kaart.

Ga met uw muis naar het station om de naam te zien.

Klik dan om waarnemingen en weersverwachtingen te zien.

kaart wijzigen: klik op de groene knoppen met een zwart kruis om in te zoomen, op de groene knop met een streepje om uit te zoomen of op de groene pijlen voor aangrenzende kaarten.


METAR-TAF: